createdAt,value
2023-05-12T00:00:28.342Z,8.99
2023-05-12T00:02:00.159Z,9.00
2023-05-12T00:03:32.478Z,8.99
2023-05-12T00:05:04.484Z,8.98
2023-05-12T00:06:36.002Z,8.97
2023-05-12T00:08:07.808Z,8.99
2023-05-12T00:09:41.684Z,8.98
2023-05-12T00:11:13.309Z,9.00
2023-05-12T00:12:45.040Z,8.99
2023-05-12T00:14:17.065Z,8.99
2023-05-12T00:15:48.759Z,9.02
2023-05-12T00:17:20.836Z,9.00
2023-05-12T00:18:52.551Z,9.01
2023-05-12T00:20:24.959Z,9.02
2023-05-12T00:21:56.493Z,9.02
2023-05-12T00:23:28.430Z,9.06
2023-05-12T00:25:00.445Z,9.09
2023-05-12T00:26:32.094Z,9.10
2023-05-12T00:28:03.968Z,9.13
2023-05-12T00:29:36.834Z,9.12
2023-05-12T00:31:08.388Z,9.12
2023-05-12T00:32:40.167Z,9.14
2023-05-12T00:34:12.052Z,9.14
2023-05-12T00:35:45.698Z,9.12
2023-05-12T00:37:17.563Z,9.10
2023-05-12T00:38:49.224Z,9.11
2023-05-12T00:40:21.152Z,9.08
2023-05-12T00:41:56.847Z,9.05
2023-05-12T00:43:28.441Z,9.04
2023-05-12T00:45:00.073Z,9.06
2023-05-12T00:46:32.027Z,9.05
2023-05-12T00:48:03.930Z,9.05
2023-05-12T00:49:35.636Z,9.05
2023-05-12T00:51:07.412Z,9.05
2023-05-12T00:52:39.385Z,9.05
2023-05-12T00:54:11.094Z,9.05
2023-05-12T00:55:42.637Z,9.01
2023-05-12T00:57:14.457Z,9.00
2023-05-12T00:58:46.949Z,9.01
2023-05-12T01:00:18.842Z,9.00
2023-05-12T01:01:50.607Z,8.99
2023-05-12T01:03:22.558Z,9.00
2023-05-12T01:04:54.246Z,8.98
2023-05-12T01:06:39.305Z,9.00
2023-05-12T01:08:10.901Z,9.00
2023-05-12T01:09:42.738Z,8.99
2023-05-12T01:11:14.666Z,8.94
2023-05-12T01:12:46.306Z,8.91
2023-05-12T01:14:17.846Z,8.85
2023-05-12T01:15:49.464Z,8.82
2023-05-12T01:17:22.353Z,8.82
2023-05-12T01:18:54.633Z,8.80
2023-05-12T01:20:26.513Z,8.78
2023-05-12T01:21:58.130Z,8.76
2023-05-12T01:23:31.903Z,8.73
2023-05-12T01:25:07.859Z,8.72
2023-05-12T01:26:39.655Z,8.71
2023-05-12T01:28:11.345Z,8.75
2023-05-12T01:29:43.785Z,8.74
2023-05-12T01:31:15.377Z,8.74
2023-05-12T01:32:47.020Z,8.76
2023-05-12T01:34:18.751Z,8.75
2023-05-12T01:35:50.346Z,8.74
2023-05-12T01:37:21.934Z,8.77
2023-05-12T01:38:53.412Z,8.79
2023-05-12T01:40:24.930Z,8.82
2023-05-12T01:41:56.479Z,8.79
2023-05-12T01:43:28.216Z,8.78
2023-05-12T01:45:00.201Z,8.73
2023-05-12T01:46:31.854Z,8.68
2023-05-12T01:48:03.808Z,8.68
2023-05-12T01:49:38.014Z,8.64
2023-05-12T01:51:09.517Z,8.61
2023-05-12T01:52:41.577Z,8.57
2023-05-12T01:54:13.083Z,8.52
2023-05-12T01:55:44.602Z,8.50
2023-05-12T01:57:16.166Z,8.51
2023-05-12T01:58:47.973Z,8.48
2023-05-12T02:00:19.893Z,8.44
2023-05-12T02:01:51.726Z,8.39
2023-05-12T02:03:23.781Z,8.37
2023-05-12T02:04:56.004Z,8.38
2023-05-12T02:06:28.677Z,8.39
2023-05-12T02:08:00.464Z,8.42
2023-05-12T02:09:32.457Z,8.43
2023-05-12T02:11:07.278Z,8.40
2023-05-12T02:12:39.309Z,8.39
2023-05-12T02:14:10.897Z,8.38
2023-05-12T02:15:43.176Z,8.36
2023-05-12T02:17:15.175Z,8.38
2023-05-12T02:18:47.187Z,8.39
2023-05-12T02:20:18.922Z,8.40
2023-05-12T02:21:51.038Z,8.38
2023-05-12T02:23:22.605Z,8.35
2023-05-12T02:24:54.348Z,8.34
2023-05-12T02:26:26.368Z,8.35
2023-05-12T02:27:57.962Z,8.37
2023-05-12T02:29:29.412Z,8.40
2023-05-12T02:31:00.930Z,8.42
2023-05-12T02:32:33.040Z,8.45
2023-05-12T02:34:06.640Z,8.43
2023-05-12T02:35:38.360Z,8.44
2023-05-12T02:37:09.869Z,8.46
2023-05-12T02:38:42.192Z,8.48
2023-05-12T02:40:13.831Z,8.51
2023-05-12T02:41:45.362Z,8.45
2023-05-12T02:43:16.904Z,8.43
2023-05-12T02:44:48.732Z,8.45
2023-05-12T02:46:20.779Z,8.42
2023-05-12T02:47:52.344Z,8.34
2023-05-12T02:49:24.444Z,8.31
2023-05-12T02:50:58.171Z,8.29
2023-05-12T02:52:29.804Z,8.31
2023-05-12T02:54:01.537Z,8.30
2023-05-12T02:55:34.128Z,8.32
2023-05-12T02:57:06.280Z,8.29
2023-05-12T02:58:37.976Z,8.24
2023-05-12T03:00:09.659Z,8.19
2023-05-12T03:01:41.127Z,8.19
2023-05-12T03:03:13.312Z,8.21
2023-05-12T03:04:44.851Z,8.18
2023-05-12T03:06:16.390Z,8.16
2023-05-12T03:07:49.429Z,8.12
2023-05-12T03:09:20.889Z,8.11
2023-05-12T03:10:52.953Z,8.15
2023-05-12T03:12:24.524Z,8.15
2023-05-12T03:13:56.681Z,8.18
2023-05-12T03:15:28.282Z,8.21
2023-05-12T03:16:59.921Z,8.22
2023-05-12T03:18:31.907Z,8.23
2023-05-12T03:20:03.855Z,8.27
2023-05-12T03:21:35.369Z,8.32
2023-05-12T03:23:07.056Z,8.38
2023-05-12T03:24:38.971Z,8.42
2023-05-12T03:26:11.118Z,8.44
2023-05-12T03:27:43.334Z,8.50
2023-05-12T03:29:14.940Z,8.55
2023-05-12T03:30:46.524Z,8.52
2023-05-12T03:32:18.953Z,8.55
2023-05-12T03:33:50.998Z,8.54
2023-05-12T03:35:22.596Z,8.54
2023-05-12T03:36:54.518Z,8.52
2023-05-12T03:38:26.405Z,8.52
2023-05-12T03:39:58.840Z,8.49
2023-05-12T03:41:30.684Z,8.55
2023-05-12T03:43:02.877Z,8.57
2023-05-12T03:44:34.734Z,8.62
2023-05-12T03:46:07.311Z,8.65
2023-05-12T03:47:41.085Z,8.64
2023-05-12T03:49:12.787Z,8.62
2023-05-12T03:50:44.920Z,8.61
2023-05-12T03:52:17.581Z,8.62
2023-05-12T03:53:49.149Z,8.58
2023-05-12T03:55:20.820Z,8.54
2023-05-12T03:56:53.731Z,8.52
2023-05-12T03:58:25.235Z,8.47
2023-05-12T03:59:57.346Z,8.43
2023-05-12T04:01:28.883Z,8.42
2023-05-12T04:03:00.631Z,8.43
2023-05-12T04:04:32.817Z,8.44
2023-05-12T04:06:04.714Z,8.47
2023-05-12T04:07:36.618Z,8.48
2023-05-12T04:09:08.969Z,8.51
2023-05-12T04:10:41.035Z,8.52
2023-05-12T04:12:12.738Z,8.54
2023-05-12T04:13:44.640Z,8.58
2023-05-12T04:15:16.709Z,8.62
2023-05-12T04:16:48.536Z,8.65
2023-05-12T04:18:20.203Z,8.66
2023-05-12T04:19:53.016Z,8.66
2023-05-12T04:21:24.516Z,8.66
2023-05-12T04:22:56.966Z,8.68
2023-05-12T04:24:28.779Z,8.69
2023-05-12T04:26:03.254Z,8.71
2023-05-12T04:27:35.508Z,8.70
2023-05-12T04:29:07.196Z,8.70
2023-05-12T04:30:42.547Z,8.72
2023-05-12T04:32:14.113Z,8.69
2023-05-12T04:33:48.104Z,8.69
2023-05-12T04:35:19.952Z,8.73
2023-05-12T04:36:51.710Z,8.78
2023-05-12T04:38:23.238Z,8.83
2023-05-12T04:39:55.444Z,8.85
2023-05-12T04:41:27.213Z,8.88
2023-05-12T04:42:58.983Z,8.95
2023-05-12T04:44:30.502Z,8.99
2023-05-12T04:46:02.550Z,9.07
2023-05-12T04:47:34.451Z,9.12
2023-05-12T04:49:06.136Z,9.19
2023-05-12T04:50:37.876Z,9.21
2023-05-12T04:52:09.853Z,9.23
2023-05-12T04:53:44.081Z,9.25
2023-05-12T04:55:15.695Z,9.25
2023-05-12T04:56:47.635Z,9.27
2023-05-12T04:58:19.089Z,9.28
2023-05-12T04:59:51.044Z,9.28
2023-05-12T05:01:22.517Z,9.26
2023-05-12T05:02:54.112Z,9.22
2023-05-12T05:04:25.788Z,9.18
2023-05-12T05:05:57.466Z,9.14
2023-05-12T05:07:29.006Z,9.09
2023-05-12T05:09:00.964Z,9.10
2023-05-12T05:10:32.636Z,9.07
2023-05-12T05:12:04.321Z,9.03
2023-05-12T05:13:36.004Z,9.04
2023-05-12T05:15:09.929Z,9.07
2023-05-12T05:16:42.503Z,9.13
2023-05-12T05:18:14.176Z,9.20
2023-05-12T05:19:57.854Z,9.21
2023-05-12T05:21:30.671Z,9.22
2023-05-12T05:23:02.544Z,9.22
2023-05-12T05:24:34.058Z,9.23
2023-05-12T05:26:05.868Z,9.26
2023-05-12T05:27:38.969Z,9.28
2023-05-12T05:29:10.881Z,9.31
2023-05-12T05:30:45.437Z,9.33
2023-05-12T05:32:17.323Z,9.36
2023-05-12T05:33:49.279Z,9.39
2023-05-12T05:35:21.227Z,9.42
2023-05-12T05:36:53.602Z,9.40
2023-05-12T05:38:25.477Z,9.36
2023-05-12T05:39:57.095Z,9.35
2023-05-12T05:41:28.669Z,9.31
2023-05-12T05:43:00.263Z,9.30
2023-05-12T05:44:32.032Z,9.24
2023-05-12T05:46:04.085Z,9.21
2023-05-12T05:47:37.724Z,9.19
2023-05-12T05:49:09.447Z,9.19
2023-05-12T05:50:41.331Z,9.18
2023-05-12T05:52:13.517Z,9.19
2023-05-12T05:53:45.589Z,9.18
2023-05-12T05:55:17.449Z,9.17
2023-05-12T05:56:49.236Z,9.16
2023-05-12T05:58:20.726Z,9.19
2023-05-12T05:59:52.214Z,9.19
2023-05-12T06:01:23.708Z,9.21
2023-05-12T06:02:55.447Z,9.21
2023-05-12T06:04:27.082Z,9.23
2023-05-12T06:05:58.843Z,9.28
2023-05-12T06:07:30.440Z,9.28
2023-05-12T06:09:02.046Z,9.29
2023-05-12T06:10:33.679Z,9.30
2023-05-12T06:12:05.461Z,9.34
2023-05-12T06:13:37.053Z,9.36
2023-05-12T06:15:09.922Z,9.33
2023-05-12T06:16:42.139Z,9.36
2023-05-12T06:18:14.480Z,9.40
2023-05-12T06:19:48.021Z,9.43
2023-05-12T06:21:19.687Z,9.49
2023-05-12T06:22:52.886Z,9.52
2023-05-12T06:24:24.403Z,9.51
2023-05-12T06:25:56.137Z,9.49
2023-05-12T06:27:27.804Z,9.50
2023-05-12T06:28:59.342Z,9.55
2023-05-12T06:30:31.006Z,9.59
2023-05-12T06:32:02.617Z,9.60
2023-05-12T06:33:34.476Z,9.61
2023-05-12T06:35:06.797Z,9.61
2023-05-12T06:36:39.075Z,9.59
2023-05-12T06:38:11.516Z,9.62
2023-05-12T06:39:43.603Z,9.65
2023-05-12T06:41:15.750Z,9.68
2023-05-12T06:42:47.458Z,9.69
2023-05-12T06:44:19.055Z,9.70
2023-05-12T06:45:50.819Z,9.66
2023-05-12T06:47:22.358Z,9.68
2023-05-12T06:48:55.673Z,9.64
2023-05-12T06:50:27.468Z,9.66
2023-05-12T06:51:59.224Z,9.66
2023-05-12T06:53:30.988Z,9.65
2023-05-12T06:55:03.114Z,9.62
2023-05-12T06:56:37.126Z,9.70
2023-05-12T06:58:08.923Z,9.74
2023-05-12T06:59:40.975Z,9.80
2023-05-12T07:01:13.145Z,9.84
2023-05-12T07:02:45.327Z,9.84
2023-05-12T07:04:17.234Z,9.86
2023-05-12T07:05:48.852Z,9.87
2023-05-12T07:07:20.437Z,9.90
2023-05-12T07:08:51.973Z,9.92
2023-05-12T07:10:23.631Z,9.98
2023-05-12T07:11:55.154Z,10.04
2023-05-12T07:13:27.050Z,10.04
2023-05-12T07:14:58.558Z,10.10
2023-05-12T07:16:30.322Z,10.13
2023-05-12T07:18:02.452Z,10.19
2023-05-12T07:19:35.688Z,10.28
2023-05-12T07:21:07.502Z,10.33
2023-05-12T07:22:39.706Z,10.41
2023-05-12T07:24:12.063Z,10.43
2023-05-12T07:25:44.300Z,10.49
2023-05-12T07:27:16.525Z,10.52
2023-05-12T07:28:48.220Z,10.57
2023-05-12T07:30:20.286Z,10.55
2023-05-12T07:31:52.118Z,10.61
2023-05-12T07:33:23.854Z,10.68
2023-05-12T07:34:55.449Z,10.72
2023-05-12T07:36:26.973Z,10.76
2023-05-12T07:37:58.596Z,10.81
2023-05-12T07:39:32.434Z,10.93
2023-05-12T07:41:04.408Z,11.06
2023-05-12T07:42:35.875Z,11.19
2023-05-12T07:44:07.611Z,11.27
2023-05-12T07:45:39.289Z,11.33
2023-05-12T07:47:11.152Z,11.38
2023-05-12T07:48:42.757Z,11.43
2023-05-12T07:50:14.851Z,11.47
2023-05-12T07:51:47.074Z,11.49
2023-05-12T07:53:19.089Z,11.51
2023-05-12T07:54:50.637Z,11.58
2023-05-12T07:56:22.412Z,11.69
2023-05-12T07:57:54.225Z,11.81
2023-05-12T07:59:26.253Z,11.93
2023-05-12T08:01:00.361Z,12.08
2023-05-12T08:02:32.107Z,12.24
2023-05-12T08:04:03.916Z,12.34
2023-05-12T08:05:35.618Z,12.41
2023-05-12T08:07:07.153Z,12.53
2023-05-12T08:08:38.873Z,12.59
2023-05-12T08:10:11.687Z,12.57
2023-05-12T08:11:46.568Z,12.60
2023-05-12T08:13:19.558Z,12.70
2023-05-12T08:14:51.033Z,12.73
2023-05-12T08:16:22.754Z,12.72
2023-05-12T08:17:54.628Z,12.76
2023-05-12T08:19:26.534Z,12.74
2023-05-12T08:20:58.165Z,12.78
2023-05-12T08:22:29.705Z,12.79
2023-05-12T08:24:01.313Z,12.75
2023-05-12T08:25:35.103Z,12.79
2023-05-12T08:27:06.794Z,12.86
2023-05-12T08:28:38.798Z,12.86
2023-05-12T08:30:10.849Z,12.85
2023-05-12T08:31:42.957Z,12.84
2023-05-12T08:33:14.697Z,12.90
2023-05-12T08:34:47.028Z,12.95
2023-05-12T08:36:18.996Z,12.99
2023-05-12T08:37:50.945Z,12.96
2023-05-12T08:39:23.092Z,12.98
2023-05-12T08:40:59.623Z,13.03
2023-05-12T08:42:35.265Z,13.08
2023-05-12T08:44:06.950Z,13.09
2023-05-12T08:45:39.135Z,13.01
2023-05-12T08:47:10.853Z,12.97
2023-05-12T08:48:42.762Z,12.96
2023-05-12T08:50:14.587Z,12.98
2023-05-12T08:51:56.508Z,13.02
2023-05-12T08:53:29.360Z,13.02
2023-05-12T08:55:03.316Z,13.04
2023-05-12T08:58:10.168Z,13.08
2023-05-12T08:59:44.480Z,13.01
2023-05-12T09:01:16.486Z,13.00
2023-05-12T09:02:53.858Z,13.06
2023-05-12T09:04:26.566Z,13.13
2023-05-12T09:05:58.538Z,13.19
2023-05-12T09:07:30.844Z,13.18
2023-05-12T09:09:03.342Z,13.20
2023-05-12T09:10:35.886Z,13.27
2023-05-12T09:12:08.149Z,13.28
2023-05-12T09:13:48.242Z,13.30
2023-05-12T09:15:21.453Z,13.31
2023-05-12T09:16:55.289Z,13.39
2023-05-12T09:18:27.116Z,13.50
2023-05-12T09:19:58.995Z,13.56
2023-05-12T09:21:31.344Z,13.63
2023-05-12T09:23:15.896Z,13.63
2023-05-12T09:24:47.950Z,13.63
2023-05-12T09:26:20.113Z,13.66
2023-05-12T09:27:54.425Z,13.76
2023-05-12T09:29:31.738Z,13.76
2023-05-12T09:31:24.510Z,13.76
2023-05-12T09:33:05.936Z,13.75
2023-05-12T09:34:38.822Z,13.74
2023-05-12T09:36:10.663Z,13.77
2023-05-12T09:37:42.407Z,13.88
2023-05-12T09:39:14.654Z,13.91
2023-05-12T09:40:46.486Z,13.95
2023-05-12T09:42:18.508Z,13.95
2023-05-12T09:43:52.421Z,13.95
2023-05-12T09:45:23.945Z,13.96
2023-05-12T09:46:55.481Z,13.97
2023-05-12T09:48:27.585Z,14.08
2023-05-12T09:49:59.538Z,14.20
2023-05-12T09:51:31.394Z,14.28
2023-05-12T09:53:03.961Z,14.33
2023-05-12T09:54:36.516Z,14.36
2023-05-12T09:56:31.532Z,14.32
2023-05-12T09:58:04.605Z,14.31
2023-05-12T09:59:36.492Z,14.30
2023-05-12T10:01:22.074Z,14.19
2023-05-12T10:02:54.825Z,14.07
2023-05-12T10:04:26.795Z,14.00
2023-05-12T10:05:58.742Z,13.90
2023-05-12T10:07:30.612Z,13.87
2023-05-12T10:09:42.524Z,13.83
2023-05-12T10:11:14.511Z,13.76
2023-05-12T10:12:46.285Z,13.76
2023-05-12T10:14:18.447Z,13.78
2023-05-12T10:15:50.738Z,13.85
2023-05-12T10:17:22.320Z,13.91
2023-05-12T10:18:54.110Z,13.85
2023-05-12T10:20:25.792Z,13.74
2023-05-12T10:21:57.478Z,13.71
2023-05-12T10:23:29.085Z,13.64
2023-05-12T10:25:03.823Z,13.60
2023-05-12T10:26:35.951Z,13.60
2023-05-12T10:28:07.856Z,13.57
2023-05-12T10:29:39.659Z,13.56
2023-05-12T10:31:11.598Z,13.62
2023-05-12T10:32:43.654Z,13.61
2023-05-12T10:34:22.120Z,13.61
2023-05-12T10:35:53.840Z,13.61
2023-05-12T10:37:25.464Z,13.63
2023-05-12T10:38:59.087Z,13.66
2023-05-12T10:40:30.771Z,13.66
2023-05-12T10:42:05.948Z,13.57
2023-05-12T10:43:42.614Z,13.52
2023-05-12T10:45:15.522Z,13.53
2023-05-12T10:46:56.193Z,13.51
2023-05-12T10:48:27.783Z,13.49
2023-05-12T10:49:59.667Z,13.49
2023-05-12T10:51:31.929Z,13.48
2023-05-12T10:53:04.071Z,13.46
2023-05-12T10:54:40.832Z,13.42
2023-05-12T10:56:13.016Z,13.43
2023-05-12T10:57:52.117Z,13.52
2023-05-12T10:59:25.000Z,13.56
2023-05-12T11:01:03.544Z,13.61
2023-05-12T11:02:37.279Z,13.68
2023-05-12T11:04:10.966Z,13.75
2023-05-12T11:05:44.153Z,13.81
2023-05-12T11:07:16.799Z,13.88
2023-05-12T11:08:49.257Z,13.90
2023-05-12T11:10:22.451Z,13.95
2023-05-12T11:11:54.475Z,13.94
2023-05-12T11:13:26.906Z,13.96
2023-05-12T11:15:02.109Z,14.06
2023-05-12T11:16:33.803Z,14.15
2023-05-12T11:18:05.764Z,14.17
2023-05-12T11:19:37.968Z,14.24
2023-05-12T11:21:11.908Z,14.32
2023-05-12T11:22:43.843Z,14.40
2023-05-12T11:24:16.992Z,14.46
2023-05-12T11:25:48.977Z,14.48
2023-05-12T11:27:23.678Z,14.56
2023-05-12T11:28:58.406Z,14.58
2023-05-12T11:30:30.082Z,14.64
2023-05-12T11:32:01.914Z,14.61
2023-05-12T11:33:34.013Z,14.67
2023-05-12T11:35:12.335Z,14.69
2023-05-12T11:36:44.705Z,14.72
2023-05-12T11:38:17.992Z,14.74
2023-05-12T11:39:49.971Z,14.82
2023-05-12T11:41:25.296Z,14.93
2023-05-12T11:42:57.212Z,14.96
2023-05-12T11:44:29.367Z,14.98
2023-05-12T11:46:01.718Z,14.97
2023-05-12T11:47:33.778Z,14.93
2023-05-12T11:49:05.465Z,14.86
2023-05-12T11:50:38.213Z,14.84
2023-05-12T11:52:09.872Z,14.83
2023-05-12T11:53:41.395Z,14.86
2023-05-12T11:55:13.034Z,14.83
2023-05-12T11:56:51.785Z,14.79
2023-05-12T11:58:27.487Z,14.77
2023-05-12T12:00:00.480Z,14.75
2023-05-12T12:01:34.676Z,14.80
2023-05-12T12:03:07.423Z,14.81
2023-05-12T12:04:40.848Z,14.80
2023-05-12T12:06:12.768Z,14.84
2023-05-12T12:07:44.777Z,14.85
2023-05-12T12:09:16.463Z,14.88
2023-05-12T12:10:48.187Z,14.86
2023-05-12T12:12:20.475Z,14.76
2023-05-12T12:14:03.013Z,14.66
2023-05-12T12:15:35.769Z,14.59
2023-05-12T12:17:07.838Z,14.56
2023-05-12T12:18:41.028Z,14.48
2023-05-12T12:20:13.424Z,14.44
2023-05-12T12:21:45.438Z,14.44
2023-05-12T12:23:17.366Z,14.39
2023-05-12T12:24:49.747Z,14.35
2023-05-12T12:26:23.129Z,14.29
2023-05-12T12:27:55.242Z,14.27
2023-05-12T12:29:28.950Z,14.21
2023-05-12T12:31:00.779Z,14.21
2023-05-12T12:32:32.386Z,14.23
2023-05-12T12:34:04.935Z,14.17
2023-05-12T12:35:36.537Z,14.09
2023-05-12T12:37:08.273Z,14.06
2023-05-12T12:38:40.073Z,14.06
2023-05-12T12:40:11.897Z,14.03
2023-05-12T12:41:44.430Z,14.02
2023-05-12T12:43:16.557Z,14.07
2023-05-12T12:44:50.509Z,14.13
2023-05-12T12:46:22.645Z,14.18
2023-05-12T12:47:55.224Z,14.21
2023-05-12T12:49:27.517Z,14.16
2023-05-12T12:50:59.117Z,14.08
2023-05-12T12:52:30.624Z,14.04
2023-05-12T12:54:02.382Z,14.01
2023-05-12T12:55:34.124Z,13.94
2023-05-12T12:57:05.904Z,13.95
2023-05-12T12:58:37.603Z,13.96
2023-05-12T13:00:10.097Z,13.98
2023-05-12T13:01:41.886Z,14.05
2023-05-12T13:03:13.599Z,14.10
2023-05-12T13:04:45.228Z,14.18
2023-05-12T13:06:16.889Z,14.21
2023-05-12T13:07:48.594Z,14.23
2023-05-12T13:09:20.877Z,14.23
2023-05-12T13:10:52.858Z,14.27
2023-05-12T13:12:25.150Z,14.36
2023-05-12T13:13:57.008Z,14.44
2023-05-12T13:15:29.059Z,14.46
2023-05-12T13:17:01.435Z,14.48
2023-05-12T13:18:33.181Z,14.48
2023-05-12T13:20:05.029Z,14.51
2023-05-12T13:21:36.825Z,14.55
2023-05-12T13:23:08.453Z,14.53
2023-05-12T13:24:39.953Z,14.47
2023-05-12T13:26:11.642Z,14.44
2023-05-12T13:27:43.696Z,14.45
2023-05-12T13:29:15.410Z,14.47
2023-05-12T13:30:47.507Z,14.49
2023-05-12T13:32:21.241Z,14.45
2023-05-12T13:33:53.383Z,14.45
2023-05-12T13:35:25.558Z,14.47
2023-05-12T13:36:57.378Z,14.53
2023-05-12T13:38:29.601Z,14.61
2023-05-12T13:40:01.368Z,14.72
2023-05-12T13:41:32.868Z,14.86
2023-05-12T13:43:04.967Z,14.97
2023-05-12T13:44:36.633Z,15.11
2023-05-12T13:46:09.807Z,15.21
2023-05-12T13:47:41.470Z,15.38
2023-05-12T13:49:13.037Z,15.51
2023-05-12T13:50:44.594Z,15.66
2023-05-12T13:52:16.389Z,15.61
2023-05-12T13:53:48.012Z,15.55
2023-05-12T13:55:21.564Z,15.60
2023-05-12T13:56:54.207Z,15.66
2023-05-12T13:58:26.297Z,15.70
2023-05-12T13:59:58.584Z,15.77
2023-05-12T14:01:31.455Z,15.82
2023-05-12T14:03:03.876Z,15.87
2023-05-12T14:04:36.055Z,15.94
2023-05-12T14:06:07.817Z,15.93
2023-05-12T14:07:39.947Z,15.86
2023-05-12T14:09:12.177Z,15.80
2023-05-12T14:10:45.304Z,15.76
2023-05-12T14:12:17.180Z,15.67
2023-05-12T14:13:48.794Z,15.66
2023-05-12T14:15:32.458Z,15.57
2023-05-12T14:17:12.178Z,15.47
2023-05-12T14:18:44.099Z,15.42
2023-05-12T14:20:16.035Z,15.34
2023-05-12T14:21:47.758Z,15.30
2023-05-12T14:23:19.582Z,15.22
2023-05-12T14:24:51.350Z,15.16
2023-05-12T14:26:25.655Z,15.17
2023-05-12T14:27:57.607Z,15.22
2023-05-12T14:29:29.256Z,15.27
2023-05-12T14:47:29.865Z,14.87
2023-05-12T14:49:01.954Z,14.96
2023-05-12T14:50:33.660Z,14.98
2023-05-12T14:52:05.378Z,14.99
2023-05-12T14:53:37.338Z,15.01
2023-05-12T14:55:12.401Z,15.00
2023-05-12T14:56:44.061Z,14.93
2023-05-12T14:58:17.838Z,14.93
2023-05-12T14:59:52.418Z,14.90
2023-05-12T15:01:24.312Z,14.88
2023-05-12T15:02:55.968Z,14.87
2023-05-12T15:04:28.291Z,14.92
2023-05-12T15:07:34.790Z,14.96
2023-05-12T15:09:07.060Z,14.97
2023-05-12T15:10:39.191Z,15.03
2023-05-12T15:12:11.564Z,15.02
2023-05-12T15:13:43.813Z,15.05
2023-05-12T15:15:15.350Z,15.09
2023-05-12T15:16:47.507Z,15.08
2023-05-12T15:18:19.185Z,15.08
2023-05-12T15:19:51.420Z,15.11
2023-05-12T15:21:23.951Z,15.12
2023-05-12T15:22:55.627Z,15.07
2023-05-12T15:24:27.419Z,15.03
2023-05-12T15:26:07.029Z,14.97
2023-05-12T15:27:47.487Z,14.94
2023-05-12T15:29:19.103Z,14.94
2023-05-12T15:30:57.150Z,14.90
2023-05-12T15:32:29.038Z,14.94
2023-05-12T15:34:01.215Z,14.90
2023-05-12T15:35:33.751Z,14.84
2023-05-12T15:37:05.461Z,14.82
2023-05-12T15:38:37.964Z,14.80
2023-05-12T15:40:10.356Z,14.77
2023-05-12T15:41:42.950Z,14.78
2023-05-12T15:43:15.171Z,14.77
2023-05-12T15:44:47.542Z,14.76
2023-05-12T15:46:19.171Z,14.68
2023-05-12T15:47:50.947Z,14.56
2023-05-12T15:49:22.806Z,14.50
2023-05-12T15:50:54.350Z,14.39
2023-05-12T15:52:27.865Z,14.33
2023-05-12T15:53:59.368Z,14.25
2023-05-12T15:55:32.524Z,14.23
2023-05-12T15:57:04.190Z,14.21
2023-05-12T15:58:35.965Z,14.20
2023-05-12T16:00:11.082Z,14.21
2023-05-12T16:01:43.407Z,14.24
2023-05-12T16:03:15.824Z,14.23
2023-05-12T16:04:47.648Z,14.20
2023-05-12T16:06:19.698Z,14.14
2023-05-12T16:07:51.585Z,14.09
2023-05-12T16:09:23.608Z,13.99
2023-05-12T16:10:55.413Z,13.99
2023-05-12T16:12:27.142Z,14.00
2023-05-12T16:14:00.321Z,13.97
2023-05-12T16:15:32.182Z,13.95
2023-05-12T16:17:06.275Z,13.92
2023-05-12T16:18:38.559Z,13.92
2023-05-12T16:20:11.263Z,13.84
2023-05-12T16:21:43.595Z,13.78
2023-05-12T16:23:15.722Z,13.65
2023-05-12T16:24:48.055Z,13.60
2023-05-12T16:26:19.702Z,13.55
2023-05-12T16:27:51.218Z,13.44
2023-05-12T16:29:22.739Z,13.41
2023-05-12T16:30:54.488Z,13.36
2023-05-12T16:32:26.227Z,13.30
2023-05-12T16:33:57.945Z,13.27
2023-05-12T16:35:29.482Z,13.19
2023-05-12T16:37:01.511Z,13.11
2023-05-12T16:38:35.292Z,13.10
2023-05-12T16:40:07.499Z,13.07
2023-05-12T16:41:39.192Z,13.03
2023-05-12T16:43:10.967Z,13.00
2023-05-12T16:44:43.235Z,12.97
2023-05-12T16:46:15.213Z,12.95
2023-05-12T16:47:47.101Z,12.88
2023-05-12T16:49:19.106Z,12.84
2023-05-12T16:50:50.923Z,12.83
2023-05-12T16:52:22.929Z,12.80
2023-05-12T16:53:54.471Z,12.75
2023-05-12T16:55:26.790Z,12.72
2023-05-12T16:56:59.197Z,12.71
2023-05-12T16:58:33.847Z,12.66
2023-05-12T17:00:06.828Z,12.61
2023-05-12T17:01:39.744Z,12.55
2023-05-12T17:03:12.245Z,12.51
2023-05-12T17:04:45.072Z,12.47
2023-05-12T17:06:18.322Z,12.49
2023-05-12T17:07:50.444Z,12.48
2023-05-12T17:09:23.851Z,12.46
2023-05-12T17:10:55.968Z,12.41
2023-05-12T17:12:27.551Z,12.38
2023-05-12T17:14:00.188Z,12.33
2023-05-12T17:15:31.926Z,12.30
2023-05-12T17:17:03.965Z,12.25
2023-05-12T17:19:13.504Z,12.22
2023-05-12T17:20:27.373Z,12.17
2023-05-12T17:21:58.992Z,12.14
2023-05-12T17:23:30.620Z,12.13
2023-05-12T17:25:02.343Z,12.11
2023-05-12T17:26:34.088Z,12.06
2023-05-12T17:28:06.331Z,12.04
2023-05-12T17:29:38.108Z,12.02
2023-05-12T17:31:10.758Z,11.99
2023-05-12T17:32:43.344Z,11.95
2023-05-12T17:34:15.622Z,11.92
2023-05-12T17:36:00.509Z,11.92
2023-05-12T17:37:39.571Z,11.90
2023-05-12T17:39:15.059Z,11.86
2023-05-12T17:40:49.920Z,11.86
2023-05-12T17:42:21.571Z,11.87
2023-05-12T17:43:53.878Z,11.89
2023-05-12T17:45:25.549Z,11.86
2023-05-12T17:46:57.254Z,11.86
2023-05-12T17:48:33.172Z,11.85
2023-05-12T17:50:05.185Z,11.82
2023-05-12T17:51:36.902Z,11.81
2023-05-12T17:53:08.550Z,11.81
2023-05-12T17:54:40.318Z,11.80
2023-05-12T17:56:11.992Z,11.82
2023-05-12T17:57:43.741Z,11.78
2023-05-12T17:59:16.007Z,11.78
2023-05-12T18:00:47.808Z,11.79
2023-05-12T18:02:19.602Z,11.80
2023-05-12T18:03:51.792Z,11.77
2023-05-12T18:05:23.610Z,11.76
2023-05-12T18:06:55.414Z,11.76
2023-05-12T18:08:27.279Z,11.76
2023-05-12T18:09:59.052Z,11.75
2023-05-12T18:11:31.301Z,11.73
2023-05-12T18:13:03.143Z,11.72
2023-05-12T18:14:35.183Z,11.70
2023-05-12T18:16:10.812Z,11.69
2023-05-12T18:17:50.138Z,11.69
2023-05-12T18:19:21.811Z,11.64
2023-05-12T18:20:53.827Z,11.65
2023-05-12T18:22:25.819Z,11.65
2023-05-12T18:23:57.446Z,11.65
2023-05-12T18:25:29.032Z,11.65
2023-05-12T18:27:01.176Z,11.63
2023-05-12T18:28:32.881Z,11.60
2023-05-12T18:30:04.729Z,11.60
2023-05-12T18:31:37.030Z,11.61
2023-05-12T18:33:09.287Z,11.62
2023-05-12T18:34:44.124Z,11.61
2023-05-12T18:36:16.253Z,11.60
2023-05-12T18:37:48.353Z,11.59
2023-05-12T18:39:20.072Z,11.57
2023-05-12T18:40:51.852Z,11.57
2023-05-12T18:42:23.482Z,11.57
2023-05-12T18:43:55.083Z,11.56
2023-05-12T18:45:26.823Z,11.59
2023-05-12T18:46:58.610Z,11.58
2023-05-12T18:48:31.089Z,11.57
2023-05-12T18:50:04.331Z,11.57
2023-05-12T18:51:36.747Z,11.57
2023-05-12T18:53:09.282Z,11.57
2023-05-12T18:54:41.702Z,11.56
2023-05-12T18:56:13.572Z,11.54
2023-05-12T18:57:46.354Z,11.54
2023-05-12T18:59:18.463Z,11.51
2023-05-12T19:00:50.144Z,11.51
2023-05-12T19:02:21.967Z,11.47
2023-05-12T19:03:53.690Z,11.46
2023-05-12T19:05:25.429Z,11.45
2023-05-12T19:06:57.074Z,11.43
2023-05-12T19:08:28.632Z,11.45
2023-05-12T19:10:00.388Z,11.44
2023-05-12T19:11:32.072Z,11.45
2023-05-12T19:13:04.014Z,11.45
2023-05-12T19:14:36.068Z,11.47
2023-05-12T19:16:07.755Z,11.48
2023-05-12T19:17:39.518Z,11.51
2023-05-12T19:19:11.629Z,11.50
2023-05-12T19:20:43.869Z,11.51
2023-05-12T19:22:15.509Z,11.52
2023-05-12T19:23:47.486Z,11.51
2023-05-12T19:25:19.476Z,11.50
2023-05-12T19:26:51.443Z,11.52
2023-05-12T19:28:22.989Z,11.52
2023-05-12T19:29:54.988Z,11.50
2023-05-12T19:31:26.920Z,11.50
2023-05-12T19:32:58.730Z,11.53
2023-05-12T19:34:31.707Z,11.49
2023-05-12T19:36:03.961Z,11.51
2023-05-12T19:37:36.239Z,11.51
2023-05-12T19:39:07.831Z,11.52
2023-05-12T19:40:39.959Z,11.52
2023-05-12T19:42:11.592Z,11.53
2023-05-12T19:43:43.441Z,11.55
2023-05-12T19:45:15.755Z,11.60
2023-05-12T19:46:47.806Z,11.63
2023-05-12T19:48:19.950Z,11.65
2023-05-12T19:49:56.401Z,11.68
2023-05-12T19:51:28.408Z,11.69
2023-05-12T19:53:00.001Z,11.68
2023-05-12T19:54:32.002Z,11.68
2023-05-12T19:56:03.676Z,11.69
2023-05-12T19:57:35.838Z,11.67
2023-05-12T19:59:07.818Z,11.68
2023-05-12T20:00:39.720Z,11.71
2023-05-12T20:02:12.908Z,11.73
2023-05-12T20:03:44.642Z,11.76
2023-05-12T20:05:16.859Z,11.76
2023-05-12T20:06:48.693Z,11.77
2023-05-12T20:08:20.369Z,11.76
2023-05-12T20:09:52.081Z,11.78
2023-05-12T20:11:25.441Z,11.77
2023-05-12T20:12:57.285Z,11.75
2023-05-12T20:14:28.933Z,11.71
2023-05-12T20:16:01.006Z,11.74
2023-05-12T20:17:33.116Z,11.77
2023-05-12T20:19:05.143Z,11.77
2023-05-12T20:20:38.057Z,11.75
2023-05-12T20:22:09.969Z,11.78
2023-05-12T20:23:42.508Z,11.81
2023-05-12T20:25:16.730Z,11.80